Atwood, Illinois
Current Conditions -  °F | °C
As of 8:53 PM on Thursday 27 Nov 2014 (Local Time) from KCMI Reporting Station
Clear Clear  
Wind Chill: -15°   Ceiling: Unl
Heat Index: -9°   Visibility: 10mi
Dew Point: -12°   Wind: 8mph
Humidity: 81%   Direction: 270°W
Pressure: 30.43"   Gusts: NA
Location:  39.8°N, 88.46°W
Report Text: KCMI 280253Z 27007KT 10SM CLR M09/M12 A3043 RMK AO2 SLP315 T10891117 58002 $
Loading
Personal Weather Stations






























Interactive Weather Map New forecast layout! Learn more

10-Day Weather Forecast

Advertisements
Track Severe Weather on mobile